Wanilla, Mississippi
Current Conditions -  °F | °C
As of 4:35 PM on Friday 31 Oct 2014 (Local Time) from K1R7 Reporting Station
Scattered Clouds Scattered Clouds  
Wind Chill: 68°   Ceiling: Unl
Heat Index: 68°   Visibility: 10mi
Dew Point: 46°   Wind: 17mph
Humidity: 46%   Direction: 310°NW
Pressure: 30.09"   Gusts: 23mph
Location:  31.4742°N, 90.119°W
Report Text: K1R7 312135Z AUTO 31015G20KT 10SM SCT050 20/08 A3009 RMK AO2
Loading
Personal Weather Stations






























Interactive Weather Map
Tropical Storm Tracking
New forecast layout! Learn more

10-Day Weather Forecast

Advertisements
Track Severe Weather on mobile